De Forest, Wisconsin
Current Conditions -  °F | °C
As of 3:53 PM on Sunday 25 Jan 2015 (Local Time) from KMSN Reporting Station
Scattered Clouds Scattered Clouds  
Wind Chill: 11°   Ceiling: Unl
Heat Index: 24°   Visibility: 10mi
Dew Point: 13°   Wind: 16mph
Humidity: 62%   Direction: 20°NNE
Pressure: 29.98"   Gusts: NA
Location:  43.25°N, 89.34°W
Report Text: KMSN 252153Z 02014KT 10SM FEW025 SCT250 M04/M11 A2998 RMK AO2 SLP166 T10441106
Loading
Personal Weather Stations






























Interactive Weather Map New forecast layout! Learn more

10-Day Weather Forecast

Advertisements
Track Severe Weather on mobile